Impacts TAF Board INFO
FOR SITUATIONAL AWARENESS. NOT TO BE USED FOR FLIGHT PLANNING PURPOSES.
IDs:

KCVG - Cincinnati Intl, KY, US

Issued at 2340 UTC 20 Feb 2017
Updated at 0514 UTC 21 Feb 2017
Potential Impact None Slight Moderate High
Time0452Z 21/06Z 21/07Z 21/08Z 21/09Z 21/10Z 21/11Z 21/12Z 21/13Z 21/14Z 21/15Z 21/16Z 21/17Z 21/18Z
Type OBS PRVL PRVL PRVL PRVL PRVL PRVL PRVL PRVL PRVL PRVL PRVL PRVL PRVL
VIS 10 >6 >6 >6 >6 >6 >6 >6 >6 >6 >6 >6 >6 >6
CIG 250 250 250 250 250 250 250 250 250 250 250 250 250 250
Cover OVC BKN BKN BKN BKN BKN BKN BKN BKN BKN BKN BKN BKN BKN
FltCat VFR VFR VFR VFR VFR VFR VFR VFR VFR VFR VFR VFR VFR VFR
WX -- -- -- -- -- -- -- -- -- -- -- -- -- --
WDir 120 110 110 110 110 110 110 110 110 200 200 200 200 200
WSpd 9 5 5 5 5 5 5 5 5 12 12 12 12 12
WGst -- -- -- -- -- -- -- -- -- -- -- -- -- --

Raw TAF
KCVG 202340Z 2100/2206 11005KT P6SM BKN250
  FM211400 20012KT P6SM SCT040 BKN250
  FM212100 19010KT P6SM VCSH OVC040
  FM220300 19005KT P6SM VCSH OVC015


Raw METAR
KCVG 210452Z 12009KT 10SM OVC250 13/04 A3004 RMK AO2 SLP168 T01280044 401780017
KCVG 210352Z 13008KT 10SM OVC250 13/04 A3007 RMK AO2 SLP182 T01280044
KCVG 210252Z 11007KT 10SM BKN240 13/06 A3010 RMK AO2 SLP190 T01330056 56006

METAR Board
Radar Display
Forecast Discussion

FOR SITUATIONAL AWARENESS. NOT TO BE USED FOR FLIGHT PLANNING PURPOSES.

Page loaded:  05:14 UTC  |   09:14 PM Pacific  |   10:14 PM Mountain  |   11:14 PM Central  |   12:14 AM Eastern

 

ADVISORIES

FORECASTS

FORECASTS

OBSERVATIONS

USER TOOLS

ABOUT US